Time;durP1;ratioP1;P1;durP2;ratioP2;P2;SDS_P1;SDS_P2;PMS_P1;PMS_P2;Temp;Humidity;BMP_temperature;BMP_pressure;BME280_temperature;BME280_humidity;BME280_pressure;Samples;Min_cycle;Max_cycle;Signal;HPM_P1;HPM_P2
2021/12/02 00:00:38;;;;;;;3.13;0.70;;;;;;;8.08;61.02;98906.94;4949123;28;96780;-85
2021/12/02 00:03:06;;;;;;;1.90;1.20;;;;;;;8.09;61.09;98902.91;4946157;28;96992;-85
2021/12/02 00:05:32;;;;;;;2.70;1.20;;;;;;;8.09;60.87;98908.41;4962935;28;99703;-86
2021/12/02 00:07:57;;;;;;;1.77;1.40;;;;;;;8.07;61.32;98906.19;4946123;28;97277;-84
2021/12/02 00:10:27;;;;;;;2.43;1.07;;;;;;;8.06;60.85;98914.94;4947778;28;97079;-86
2021/12/02 00:12:54;;;;;;;5.77;1.10;;;;;;;8.04;61.16;98920.91;4948752;28;96795;-85
2021/12/02 00:15:23;;;;;;;1.77;0.90;;;;;;;7.95;60.83;98917.78;4950513;28;97127;-86
2021/12/02 00:17:56;;;;;;;3.33;0.77;;;;;;;7.91;61.02;98933.75;4947407;28;97567;-88
2021/12/02 00:23:30;;;;;;;1.90;1.30;;;;;;;7.87;61.02;98939.53;4949111;28;97108;-85
2021/12/02 00:26:01;;;;;;;5.00;0.93;;;;;;;7.81;61.13;98936.13;4968789;28;100690;-85
2021/12/02 00:28:28;;;;;;;2.83;1.30;;;;;;;7.74;61.08;98955.84;4945904;28;98566;-85
2021/12/02 00:30:56;;;;;;;1.03;0.80;;;;;;;7.73;61.44;98948.16;4947639;28;97306;-86
2021/12/02 00:33:25;;;;;;;3.40;1.40;;;;;;;7.74;61.21;98952.34;4946790;28;97248;-85
2021/12/02 00:35:52;;;;;;;3.00;1.87;;;;;;;7.68;61.51;98962.63;4944167;28;98935;-85
2021/12/02 00:38:22;;;;;;;5.80;1.77;;;;;;;7.69;61.38;98955.91;4961211;28;98703;-85
2021/12/02 00:40:49;;;;;;;5.43;2.13;;;;;;;7.73;61.14;98956.38;4961883;28;97337;-85
2021/12/02 00:43:15;;;;;;;2.43;1.87;;;;;;;7.71;61.31;98988.97;4947246;28;96887;-84
2021/12/02 00:45:42;;;;;;;4.40;1.80;;;;;;;7.69;61.33;98980.53;4958247;28;99901;-86
2021/12/02 00:48:09;;;;;;;3.53;1.40;;;;;;;7.74;61.29;98975.00;4958282;28;99105;-85
2021/12/02 00:50:36;;;;;;;3.97;1.70;;;;;;;7.78;61.26;98969.22;4944384;28;96945;-85
2021/12/02 00:53:02;;;;;;;4.77;1.50;;;;;;;7.83;61.37;98982.13;4962039;28;96956;-85
2021/12/02 00:55:27;;;;;;;1.73;0.87;;;;;;;7.85;61.22;98982.34;4947005;28;101223;-85
2021/12/02 00:57:53;;;;;;;4.33;1.10;;;;;;;7.91;61.27;98996.72;4945739;28;97121;-85
2021/12/02 01:00:19;;;;;;;3.23;1.17;;;;;;;7.90;61.24;98978.81;4946675;28;97011;-85
2021/12/02 01:02:48;;;;;;;2.73;1.40;;;;;;;7.93;61.12;98994.22;4945708;28;96925;-84
2021/12/02 01:05:14;;;;;;;4.43;2.00;;;;;;;7.94;61.30;99009.38;4948643;28;97645;-86
2021/12/02 01:07:41;;;;;;;3.63;1.30;;;;;;;7.94;61.01;99012.13;4946855;28;97888;-85
2021/12/02 01:10:08;;;;;;;2.60;0.90;;;;;;;7.93;61.08;99007.91;4946045;28;97007;-89
2021/12/02 01:12:36;;;;;;;1.23;0.70;;;;;;;7.92;61.15;99025.59;4943300;28;98426;-88
2021/12/02 01:15:04;;;;;;;1.67;0.70;;;;;;;7.92;61.24;99039.28;4947650;28;98808;-86
2021/12/02 01:17:29;;;;;;;0.90;0.67;;;;;;;7.88;61.58;99020.41;4943324;28;97839;-85
2021/12/02 01:19:55;;;;;;;2.23;0.90;;;;;;;7.92;61.16;99061.19;4945465;28;96750;-85
2021/12/02 01:22:21;;;;;;;2.70;0.87;;;;;;;7.94;61.35;99021.09;4944181;28;97076;-86
2021/12/02 01:24:49;;;;;;;1.60;0.90;;;;;;;7.92;61.00;99053.72;4944737;28;96838;-85
2021/12/02 01:27:15;;;;;;;3.63;0.90;;;;;;;7.93;61.24;99035.31;4945625;28;96859;-85
2021/12/02 01:29:41;;;;;;;7.37;1.50;;;;;;;7.93;61.24;99033.28;4944733;28;97092;-87
2021/12/02 01:32:09;;;;;;;1.00;0.70;;;;;;;7.91;61.20;99079.59;4945394;28;97429;-87
2021/12/02 01:34:34;;;;;;;2.13;1.03;;;;;;;7.92;61.29;99048.25;4944542;28;97140;-86
2021/12/02 01:37:01;;;;;;;2.53;0.70;;;;;;;7.91;60.92;99046.75;4946681;28;98420;-86
2021/12/02 01:39:30;;;;;;;2.23;0.50;;;;;;;7.93;61.23;99046.25;4947035;28;96826;-86
2021/12/02 01:41:58;;;;;;;1.33;0.70;;;;;;;7.93;61.38;99049.72;4943177;28;96772;-85
2021/12/02 01:44:26;;;;;;;3.50;1.27;;;;;;;7.91;61.20;99059.69;4942758;28;98411;-85
2021/12/02 01:46:55;;;;;;;5.23;2.07;;;;;;;7.82;61.44;99082.66;4944191;28;97177;-85
2021/12/02 01:49:23;;;;;;;4.23;0.97;;;;;;;7.82;61.28;99060.03;4943487;28;96853;-86
2021/12/02 01:52:41;;;;;;;9.03;1.53;;;;;;;7.80;61.35;99065.28;4943168;28;98769;-86
2021/12/02 01:55:10;;;;;;;5.03;1.63;;;;;;;7.73;61.58;99077.53;4943147;28;103049;-85
2021/12/02 01:57:40;;;;;;;5.20;1.20;;;;;;;7.76;61.82;99073.00;4943393;28;97896;-84
2021/12/02 02:00:19;;;;;;;4.80;1.90;;;;;;;7.80;61.78;99070.75;4943189;28;97163;-86
2021/12/02 02:02:45;;;;;;;3.10;0.97;;;;;;;7.82;61.74;99081.94;4945885;28;96804;-85
2021/12/02 02:05:14;;;;;;;2.67;0.93;;;;;;;7.85;61.33;99067.22;4944630;28;99276;-86
2021/12/02 02:07:52;;;;;;;8.13;1.20;;;;;;;7.81;61.42;99069.50;4960191;28;99507;-85
2021/12/02 02:10:18;;;;;;;2.70;0.70;;;;;;;7.75;61.46;99082.50;4962489;28;98467;-84
2021/12/02 02:12:43;;;;;;;3.80;1.07;;;;;;;7.73;61.66;99095.94;4944763;28;96951;-84
2021/12/02 02:15:09;;;;;;;4.13;0.70;;;;;;;7.71;61.67;99074.53;4946643;28;97796;-89
2021/12/02 02:17:43;;;;;;;1.97;0.80;;;;;;;7.73;61.79;99080.28;4936143;28;97161;-84
2021/12/02 02:20:12;;;;;;;5.73;1.93;;;;;;;7.74;61.61;99078.25;4942934;28;97150;-86
2021/12/02 02:22:38;;;;;;;4.30;0.93;;;;;;;7.74;61.86;99083.72;4941156;28;97283;-86
2021/12/02 02:25:10;;;;;;;2.37;1.00;;;;;;;7.71;61.70;99080.00;4948044;28;97085;-87
2021/12/02 02:27:36;;;;;;;4.67;1.50;;;;;;;7.67;62.02;99078.81;4944589;28;97021;-85
2021/12/02 02:30:01;;;;;;;3.23;1.30;;;;;;;7.63;61.58;99075.59;4943866;28;97069;-87
2021/12/02 02:32:27;;;;;;;5.23;1.40;;;;;;;7.60;61.64;99091.06;4945896;28;97320;-84
2021/12/02 02:34:52;;;;;;;3.40;1.10;;;;;;;7.51;61.60;99119.47;4944540;28;97750;-85
2021/12/02 02:37:17;;;;;;;6.90;2.17;;;;;;;7.50;61.83;99098.09;4941555;28;98502;-86
2021/12/02 02:39:43;;;;;;;3.37;1.10;;;;;;;7.44;61.60;99087.22;4945896;28;97003;-84
2021/12/02 02:42:09;;;;;;;4.00;0.80;;;;;;;7.36;61.76;99108.13;4963508;28;97111;-86
2021/12/02 02:44:35;;;;;;;4.40;1.17;;;;;;;7.32;62.00;99101.44;4945802;28;99827;-85
2021/12/02 02:47:01;;;;;;;3.00;0.90;;;;;;;7.27;61.92;99122.13;4964371;28;97515;-85
2021/12/02 02:49:26;;;;;;;3.70;0.90;;;;;;;7.27;61.95;99115.91;4943764;28;97236;-84
2021/12/02 02:51:53;;;;;;;3.10;0.73;;;;;;;7.23;61.81;99099.75;4945098;28;96640;-85
2021/12/02 02:54:19;;;;;;;0.80;0.60;;;;;;;7.23;62.11;99101.78;4944564;28;99788;-86
2021/12/02 02:56:55;;;;;;;1.90;0.70;;;;;;;7.20;61.80;99086.38;4943028;28;98663;-85
2021/12/02 02:59:42;;;;;;;2.10;0.70;;;;;;;7.17;61.80;99096.31;4942218;28;97060;-85
2021/12/02 03:07:21;;;;;;;5.70;1.00;;;;;;;7.14;61.92;99116.47;4943080;28;97507;-86
2021/12/02 03:12:27;;;;;;;4.63;0.80;;;;;;;7.11;61.56;99105.81;4941679;28;97440;-85
2021/12/02 03:17:41;;;;;;;1.63;0.70;;;;;;;7.05;61.71;99121.50;4927209;28;100593;-85
2021/12/02 03:20:07;;;;;;;3.80;0.97;;;;;;;7.02;62.01;99120.53;4955812;28;96792;-85
2021/12/02 03:22:33;;;;;;;2.80;0.90;;;;;;;7.02;61.57;99119.78;4958449;28;97274;-85
2021/12/02 03:24:58;;;;;;;3.07;0.70;;;;;;;7.01;61.84;99138.16;4960322;28;99133;-87
2021/12/02 03:27:24;;;;;;;3.17;0.77;;;;;;;6.95;61.70;99123.03;4972639;28;98110;-86
2021/12/02 03:29:49;;;;;;;4.77;1.03;;;;;;;6.94;61.42;99129.75;4957543;28;97042;-86
2021/12/02 03:32:15;;;;;;;4.57;0.73;;;;;;;6.90;61.82;99121.84;4956237;28;97748;-88
2021/12/02 03:34:41;;;;;;;1.93;1.00;;;;;;;6.93;61.41;99123.53;4950789;28;98774;-86
2021/12/02 03:37:07;;;;;;;5.50;1.00;;;;;;;6.91;61.42;99145.16;4950239;28;96883;-86
2021/12/02 03:39:36;;;;;;;3.27;0.90;;;;;;;6.86;61.89;99120.63;4950385;28;97460;-86
2021/12/02 03:42:03;;;;;;;2.53;0.63;;;;;;;6.89;61.60;99134.00;4949663;28;97077;-84
2021/12/02 03:44:29;;;;;;;5.00;0.97;;;;;;;6.86;61.33;99145.94;4950970;28;96845;-86
2021/12/02 03:46:54;;;;;;;3.80;0.87;;;;;;;6.78;61.46;99126.59;4947059;28;97306;-85
2021/12/02 03:49:21;;;;;;;3.37;0.60;;;;;;;6.80;61.52;99145.97;4946789;28;96868;-84
2021/12/02 03:51:47;;;;;;;2.50;0.63;;;;;;;6.77;61.46;99170.84;4946605;28;97032;-85
2021/12/02 03:54:12;;;;;;;2.73;0.73;;;;;;;6.72;61.29;99153.22;4946747;28;98579;-86
2021/12/02 03:56:38;;;;;;;1.17;0.70;;;;;;;6.69;61.04;99161.66;4947944;28;97291;-85
2021/12/02 03:59:03;;;;;;;2.20;0.87;;;;;;;6.57;61.29;99135.63;4946225;28;96633;-85
2021/12/02 04:01:29;;;;;;;2.93;0.87;;;;;;;6.58;61.44;99180.81;4947871;28;96920;-86
2021/12/02 04:03:55;;;;;;;2.97;1.00;;;;;;;6.58;61.51;99158.94;4967405;28;100472;-85
2021/12/02 04:06:20;;;;;;;2.83;0.87;;;;;;;6.61;61.49;99168.88;4959227;28;99045;-86
2021/12/02 04:08:51;;;;;;;5.53;0.70;;;;;;;6.66;61.35;99184.53;4942525;28;97248;-85
2021/12/02 04:11:39;;;;;;;4.60;0.90;;;;;;;6.64;61.35;99193.19;4948133;28;96952;-86
2021/12/02 04:16:36;;;;;;;2.17;0.70;;;;;;;6.62;61.24;99176.56;4947899;28;97180;-85
2021/12/02 04:19:07;;;;;;;3.13;0.73;;;;;;;6.59;61.15;99174.84;4945992;28;96940;-86
2021/12/02 04:21:32;;;;;;;5.20;1.13;;;;;;;6.56;61.12;99175.09;4950292;28;96820;-85
2021/12/02 04:23:58;;;;;;;3.43;0.87;;;;;;;6.53;60.87;99187.75;4941622;28;97307;-85
2021/12/02 04:26:23;;;;;;;5.93;0.80;;;;;;;6.48;61.21;99215.84;4948614;28;99885;-85
2021/12/02 04:28:49;;;;;;;2.20;0.80;;;;;;;6.49;61.04;99183.78;4959932;28;97989;-86
2021/12/02 04:31:14;;;;;;;2.60;0.70;;;;;;;6.41;61.15;99210.13;4947802;28;97010;-85
2021/12/02 04:33:40;;;;;;;5.33;0.53;;;;;;;6.38;60.99;99195.47;4947338;28;98385;-84
2021/12/02 05:45:00;;;;;;;1.87;0.80;;;;;;;5.47;61.35;99325.31;4844198;28;101236;-85
2021/12/02 05:48:31;;;;;;;2.63;0.67;;;;;;;5.51;61.66;99323.09;4864844;28;97382;-85
2021/12/02 06:22:24;;;;;;;2.90;1.00;;;;;;;5.92;61.90;99373.38;4827977;29;100359;-85
2021/12/02 08:17:31;;;;;;;0.40;0.40;;;;;;;6.31;61.72;99533.88;4866603;28;97570;-84
2021/12/02 08:54:59;;;;;;;1.70;0.97;;;;;;;6.60;61.74;99583.44;4835349;28;101006;-84
2021/12/02 09:05:07;;;;;;;1.83;0.67;;;;;;;6.53;61.88;99589.34;4886315;28;101557;-85
2021/12/02 09:08:24;;;;;;;1.57;0.60;;;;;;;6.59;61.82;99592.13;4882132;28;100473;-86
2021/12/02 09:18:33;;;;;;;1.23;0.90;;;;;;;6.58;61.78;99607.75;4865523;28;100471;-85
2021/12/02 10:40:11;;;;;;;1.60;0.70;;;;;;;7.54;60.87;99665.75;4891251;28;100444;-84
2021/12/02 11:14:34;;;;;;;0.60;0.40;;;;;;;7.86;60.16;99687.44;4843301;28;96865;-86
2021/12/02 11:48:37;;;;;;;2.83;1.33;;;;;;;8.98;58.56;99720.47;4669007;30;100562;-85
2021/12/02 12:12:17;;;;;;;2.00;1.80;;;;;;;8.56;58.76;99731.78;4771857;29;97067;-85
2021/12/02 12:16:00;;;;;;;2.07;1.90;;;;;;;8.32;57.88;99737.78;4754898;29;102661;-86
2021/12/02 12:19:41;;;;;;;3.70;1.90;;;;;;;8.28;59.50;99739.25;4722383;29;100298;-85
2021/12/02 12:23:07;;;;;;;3.10;1.57;;;;;;;8.48;59.42;99746.50;4784936;29;97280;-85
2021/12/02 12:36:56;;;;;;;1.90;1.67;;;;;;;9.03;58.87;99758.13;4719834;29;97388;-86
2021/12/02 12:47:24;;;;;;;3.43;1.33;;;;;;;8.65;58.43;99764.41;4730150;29;100157;-85
2021/12/02 13:01:02;;;;;;;1.40;1.30;;;;;;;8.89;58.83;99778.34;4679475;29;101678;-86
2021/12/02 13:32:21;;;;;;;0.73;0.73;;;;;;;8.76;58.26;99808.28;4635587;30;97414;-85
2021/12/02 14:03:07;;;;;;;1.97;0.67;;;;;;;8.00;57.30;99870.69;4810074;28;97112;-86
2021/12/02 14:33:40;;;;;;;4.93;0.70;;;;;;;7.80;57.61;99925.63;4736740;29;101549;-85
2021/12/02 14:40:35;;;;;;;0.70;0.50;;;;;;;7.77;57.55;99940.31;4655573;30;98587;-85
2021/12/02 14:44:13;;;;;;;0.60;0.30;;;;;;;7.76;57.83;99938.78;4621929;30;98772;-85
2021/12/02 14:47:39;;;;;;;0.40;0.30;;;;;;;7.77;57.08;99947.75;4607096;30;101816;-86
2021/12/02 15:21:55;;;;;;;1.13;0.90;;;;;;;6.98;57.36;99989.47;4757836;29;99208;-86
2021/12/02 16:16:38;;;;;;;3.27;2.60;;;;;;;5.37;58.56;100108.66;4832831;29;97283;-86
2021/12/02 16:20:04;;;;;;;2.80;1.60;;;;;;;5.29;58.85;100106.31;4793688;29;98635;-85
2021/12/02 16:57:29;;;;;;;2.10;0.70;;;;;;;4.71;59.50;100171.56;4774788;29;97965;-86
2021/12/02 16:59:54;;;;;;;0.90;0.90;;;;;;;4.71;59.61;100190.66;4775587;29;97293;-86
2021/12/02 17:02:20;;;;;;;0.97;0.67;;;;;;;4.71;59.84;100187.16;4876947;28;98678;-86
2021/12/02 17:04:45;;;;;;;1.20;1.10;;;;;;;4.69;59.77;100190.34;4941541;28;97237;-85
2021/12/02 17:07:11;;;;;;;1.10;0.97;;;;;;;4.66;59.87;100185.81;4937082;28;98979;-85
2021/12/02 17:09:36;;;;;;;2.27;0.97;;;;;;;4.67;59.88;100197.47;4941312;28;96955;-85
2021/12/02 17:12:04;;;;;;;1.40;0.90;;;;;;;4.64;59.51;100195.66;4943456;28;97161;-85
2021/12/02 17:14:32;;;;;;;1.33;0.87;;;;;;;4.62;59.56;100211.72;4960136;28;97136;-86
2021/12/02 17:16:58;;;;;;;1.50;1.17;;;;;;;4.61;59.72;100215.69;4942823;28;97071;-85
2021/12/02 17:19:23;;;;;;;1.10;1.00;;;;;;;4.54;59.67;100238.56;4944478;28;97328;-85
2021/12/02 17:21:48;;;;;;;0.70;0.70;;;;;;;4.56;59.83;100219.78;4944669;28;98327;-85
2021/12/02 17:24:14;;;;;;;1.57;1.10;;;;;;;4.55;59.80;100215.53;4945596;28;98536;-86
2021/12/02 17:26:41;;;;;;;4.00;1.03;;;;;;;4.53;59.69;100224.19;4945756;28;96790;-84
2021/12/02 17:29:08;;;;;;;1.83;1.00;;;;;;;4.51;59.64;100232.06;4949299;28;96807;-85
2021/12/02 17:31:34;;;;;;;0.93;0.80;;;;;;;4.47;59.95;100226.03;4942815;28;96865;-86
2021/12/02 17:33:59;;;;;;;1.27;0.93;;;;;;;4.44;59.97;100226.19;4946703;28;99178;-85
2021/12/02 17:36:25;;;;;;;1.03;1.03;;;;;;;4.43;59.91;100232.84;4944621;28;97368;-85
2021/12/02 17:38:50;;;;;;;0.80;0.80;;;;;;;4.41;60.01;100243.44;4944979;28;97253;-86
2021/12/02 17:41:16;;;;;;;2.40;1.40;;;;;;;4.41;59.88;100246.19;4946729;28;96850;-86
2021/12/02 17:43:48;;;;;;;1.20;1.10;;;;;;;4.27;60.04;100244.84;4958402;28;97430;-86
2021/12/02 17:46:14;;;;;;;0.97;0.93;;;;;;;4.33;59.76;100251.19;4944135;28;97457;-85
2021/12/02 17:48:40;;;;;;;2.70;1.20;;;;;;;4.26;59.86;100264.38;4962854;28;96944;-86
2021/12/02 17:51:05;;;;;;;3.00;1.03;;;;;;;4.27;59.95;100279.47;4942201;28;97280;-86
2021/12/02 17:53:35;;;;;;;1.60;1.50;;;;;;;4.27;60.06;100266.63;4944255;28;97171;-86
2021/12/02 17:56:01;;;;;;;1.97;1.87;;;;;;;4.26;60.18;100291.59;4945606;28;97100;-85
2021/12/02 17:58:27;;;;;;;6.53;2.50;;;;;;;4.22;60.05;100320.94;4945951;28;97483;-86
2021/12/02 18:00:53;;;;;;;3.23;2.80;;;;;;;4.19;60.04;100281.78;4945382;28;99019;-86
2021/12/02 18:03:19;;;;;;;2.40;2.20;;;;;;;4.19;60.22;100289.19;4945123;28;99090;-85
2021/12/02 18:05:44;;;;;;;3.13;2.83;;;;;;;4.19;60.08;100308.25;4942809;28;97140;-86
2021/12/02 18:08:09;;;;;;;6.80;2.60;;;;;;;4.17;60.57;100289.63;4946915;28;97543;-85
2021/12/02 18:10:35;;;;;;;2.53;2.33;;;;;;;4.17;60.01;100286.91;4940244;28;99685;-86
2021/12/02 18:13:00;;;;;;;2.80;2.60;;;;;;;4.15;60.46;100288.59;4962607;28;99351;-85
2021/12/02 18:15:28;;;;;;;5.07;2.00;;;;;;;4.14;60.38;100284.34;4961390;28;96805;-85
2021/12/02 18:17:53;;;;;;;2.10;2.00;;;;;;;4.15;60.21;100294.03;4958345;28;96866;-86
2021/12/02 18:20:19;;;;;;;1.73;1.63;;;;;;;4.15;60.29;100296.78;4940633;28;99721;-86
2021/12/02 18:22:45;;;;;;;2.30;1.47;;;;;;;4.12;60.29;100336.53;4945403;28;96837;-86
2021/12/02 18:25:11;;;;;;;1.50;1.30;;;;;;;4.11;60.24;100298.88;4944655;28;96959;-86
2021/12/02 18:27:36;;;;;;;1.70;1.60;;;;;;;4.08;60.25;100307.97;4943229;28;97072;-86
2021/12/02 18:30:04;;;;;;;1.67;1.50;;;;;;;4.04;60.16;100305.38;4942350;28;97966;-86
2021/12/02 18:32:29;;;;;;;3.20;1.60;;;;;;;4.03;60.34;100312.03;4943599;28;97551;-85
2021/12/02 18:34:54;;;;;;;5.23;1.53;;;;;;;3.99;60.32;100300.56;4945382;28;96895;-85
2021/12/02 18:37:22;;;;;;;1.27;1.20;;;;;;;3.99;60.54;100310.69;4944073;28;96987;-85
2021/12/02 18:39:52;;;;;;;2.37;1.03;;;;;;;3.97;60.41;100305.72;4942650;28;97607;-86
2021/12/02 18:42:19;;;;;;;1.27;1.17;;;;;;;3.98;60.38;100307.22;4944907;28;99646;-86
2021/12/02 18:44:44;;;;;;;2.40;1.63;;;;;;;3.99;60.32;100314.16;4944057;28;97202;-86
2021/12/02 18:47:16;;;;;;;1.67;1.40;;;;;;;4.00;60.46;100315.66;4966049;28;96953;-85
2021/12/02 18:49:42;;;;;;;1.30;1.30;;;;;;;3.95;60.35;100319.03;4947807;28;97191;-85
2021/12/02 18:52:08;;;;;;;1.63;1.53;;;;;;;3.94;60.32;100311.28;4947180;28;97988;-85
2021/12/02 18:54:34;;;;;;;1.20;1.10;;;;;;;3.88;60.12;100332.91;4947760;28;97118;-86
2021/12/02 18:56:59;;;;;;;2.43;1.70;;;;;;;3.88;60.43;100310.38;4944904;28;97057;-86
2021/12/02 18:59:29;;;;;;;1.80;1.40;;;;;;;3.84;60.18;100323.41;4949244;28;98624;-86
2021/12/02 19:01:56;;;;;;;2.07;1.43;;;;;;;3.83;60.29;100319.91;4946087;28;97173;-85
2021/12/02 19:04:22;;;;;;;2.93;2.40;;;;;;;3.78;60.31;100332.16;4968386;28;96941;-85
2021/12/02 19:06:54;;;;;;;2.40;2.20;;;;;;;3.73;60.40;100334.72;4944342;28;97450;-86
2021/12/02 19:22:42;;;;;;;3.37;2.27;;;;;;;3.70;60.58;100341.84;4946439;28;96765;-85
2021/12/02 19:28:23;;;;;;;3.90;2.13;;;;;;;3.57;60.74;100335.78;4939439;28;97254;-85
2021/12/02 19:30:49;;;;;;;2.93;2.60;;;;;;;3.64;60.72;100342.88;4965628;28;97474;-86
2021/12/02 19:33:14;;;;;;;2.67;2.47;;;;;;;3.63;60.59;100333.97;4966944;28;98460;-85
2021/12/02 19:35:42;;;;;;;2.13;2.00;;;;;;;3.66;60.77;100351.34;4962579;28;96838;-85
2021/12/02 19:38:07;;;;;;;3.33;2.77;;;;;;;3.63;60.55;100346.78;4948995;28;96873;-85
2021/12/02 19:40:35;;;;;;;2.87;2.67;;;;;;;3.64;60.57;100332.00;4948171;28;97950;-85
2021/12/02 19:43:02;;;;;;;4.13;2.97;;;;;;;3.60;60.63;100339.56;4971759;28;102027;-85
2021/12/02 19:45:28;;;;;;;3.73;3.03;;;;;;;3.63;60.70;100341.34;4948025;28;97064;-86
2021/12/02 19:47:54;;;;;;;3.93;3.37;;;;;;;3.61;60.62;100330.19;4964619;28;98044;-85
2021/12/02 19:50:20;;;;;;;3.80;3.50;;;;;;;3.60;60.43;100331.41;4946680;28;97019;-85
2021/12/02 19:52:46;;;;;;;4.87;3.03;;;;;;;3.57;60.96;100346.66;4959099;28;99443;-85
2021/12/02 19:55:12;;;;;;;2.90;2.60;;;;;;;3.56;60.68;100355.28;4951109;28;97242;-85
2021/12/02 19:57:37;;;;;;;3.00;2.80;;;;;;;3.52;60.69;100360.84;4946370;28;97665;-85
2021/12/02 20:00:08;;;;;;;3.53;2.70;;;;;;;3.54;60.82;100349.50;4947471;28;99783;-85
2021/12/02 20:02:33;;;;;;;3.57;2.47;;;;;;;3.54;61.08;100354.94;4948891;28;98955;-85
2021/12/02 20:04:58;;;;;;;3.13;2.63;;;;;;;3.56;60.97;100361.44;4953047;28;97326;-85
2021/12/02 20:07:24;;;;;;;2.90;2.60;;;;;;;3.56;60.82;100353.28;4953875;28;97526;-85
2021/12/02 20:09:49;;;;;;;3.60;2.53;;;;;;;3.58;60.80;100363.72;4954123;28;97273;-85
2021/12/02 20:12:14;;;;;;;3.80;2.63;;;;;;;3.58;60.65;100363.72;4951509;28;103160;-85
2021/12/02 20:14:40;;;;;;;2.67;2.47;;;;;;;3.55;60.82;100419.78;4955007;28;96628;-85
2021/12/02 20:17:11;;;;;;;4.20;2.27;;;;;;;3.54;60.63;100361.16;4955770;28;96840;-85
2021/12/02 20:19:38;;;;;;;6.07;2.47;;;;;;;3.54;60.93;100373.97;4949592;28;101024;-85
2021/12/02 20:22:05;;;;;;;6.13;3.70;;;;;;;3.50;60.96;100370.66;4950972;28;99712;-85
2021/12/02 20:24:32;;;;;;;2.63;2.33;;;;;;;3.48;60.77;100411.91;4964737;28;97006;-84
2021/12/02 20:26:59;;;;;;;2.73;2.10;;;;;;;3.49;61.03;100385.47;4948910;28;96817;-84
2021/12/02 20:29:26;;;;;;;1.90;1.80;;;;;;;3.49;61.23;100374.59;4942823;28;98537;-84
2021/12/02 20:31:52;;;;;;;1.73;1.50;;;;;;;3.50;61.09;100370.66;4949186;28;97272;-86
2021/12/02 20:34:19;;;;;;;3.87;2.90;;;;;;;3.46;61.24;100410.81;4946193;28;97071;-84
2021/12/02 20:36:47;;;;;;;3.63;3.10;;;;;;;3.46;61.29;100381.69;4946634;28;96994;-84
2021/12/02 20:39:13;;;;;;;3.47;2.80;;;;;;;3.45;61.00;100380.16;4947408;28;98781;-84
2021/12/02 20:41:41;;;;;;;3.80;2.23;;;;;;;3.46;61.26;100373.53;4947410;28;97083;-84
2021/12/02 20:44:09;;;;;;;2.60;2.10;;;;;;;3.45;61.29;100373.97;4948217;28;96672;-84
2021/12/02 20:46:40;;;;;;;4.30;2.13;;;;;;;3.45;61.31;100382.13;4946697;28;96881;-84
2021/12/02 20:49:12;;;;;;;2.27;2.00;;;;;;;3.49;61.34;100369.16;4946694;28;98801;-86
2021/12/02 20:51:38;;;;;;;2.10;1.90;;;;;;;3.48;61.20;100371.09;4948580;28;99965;-83
2021/12/02 20:54:04;;;;;;;1.90;1.80;;;;;;;3.47;61.42;100385.16;4947285;28;98356;-85
2021/12/02 20:56:31;;;;;;;2.07;1.73;;;;;;;3.47;61.43;100382.44;4947485;28;96873;-85
2021/12/02 20:58:57;;;;;;;2.30;1.90;;;;;;;3.47;61.38;100387.88;4946317;28;97596;-85
2021/12/02 21:01:23;;;;;;;3.00;2.00;;;;;;;3.49;61.26;100396.34;4943353;28;97648;-85
2021/12/02 21:03:55;;;;;;;1.90;1.63;;;;;;;3.49;61.09;100401.78;4962546;28;97103;-85
2021/12/02 21:06:22;;;;;;;4.17;2.20;;;;;;;3.48;61.32;100394.81;4942758;28;97674;-85
2021/12/02 21:08:48;;;;;;;2.87;2.00;;;;;;;3.46;61.27;100418.97;4946700;28;98869;-84
2021/12/02 21:11:16;;;;;;;3.67;1.80;;;;;;;3.43;61.16;100404.31;4945765;28;98056;-85
2021/12/02 21:13:53;;;;;;;3.03;1.97;;;;;;;3.33;61.30;100404.75;4946390;28;97351;-85
2021/12/02 21:16:19;;;;;;;2.30;2.10;;;;;;;3.36;61.48;100420.94;4947365;28;97218;-85
2021/12/02 21:18:47;;;;;;;4.47;2.70;;;;;;;3.38;61.56;100410.38;4944089;28;98887;-84
2021/12/02 21:21:14;;;;;;;2.80;1.73;;;;;;;3.36;61.62;100398.41;4930610;28;97841;-85
2021/12/02 21:23:42;;;;;;;4.07;1.87;;;;;;;3.35;61.62;100405.81;4945425;28;96975;-84
2021/12/02 21:26:09;;;;;;;2.23;2.03;;;;;;;3.34;61.66;100422.59;4961828;28;97451;-85
2021/12/02 21:28:35;;;;;;;2.33;2.13;;;;;;;3.35;61.52;100429.53;4947893;28;97612;-85
2021/12/02 21:31:02;;;;;;;3.93;2.53;;;;;;;3.35;61.63;100459.41;4963019;28;99597;-85
2021/12/02 21:33:30;;;;;;;2.70;2.50;;;;;;;3.37;61.63;100437.97;4942401;28;98634;-84
2021/12/02 21:36:05;;;;;;;2.93;1.97;;;;;;;3.38;61.77;100447.66;4947216;28;97254;-85
2021/12/02 21:38:39;;;;;;;7.17;4.40;;;;;;;3.38;61.60;100448.44;4944889;28;97064;-85
2021/12/02 21:41:05;;;;;;;5.67;3.47;;;;;;;3.38;61.75;100455.81;4946510;28;98537;-85
2021/12/02 21:43:32;;;;;;;4.53;3.00;;;;;;;3.40;61.65;100458.84;4945182;28;97086;-86
2021/12/02 21:45:58;;;;;;;4.63;3.33;;;;;;;3.40;61.66;100503.13;4957790;28;99008;-85
2021/12/02 21:48:24;;;;;;;4.30;3.57;;;;;;;3.42;61.91;100459.16;4945355;28;98601;-85
2021/12/02 21:50:49;;;;;;;4.40;3.40;;;;;;;3.44;61.83;100464.91;4944106;28;96821;-85
2021/12/02 21:53:15;;;;;;;3.63;3.33;;;;;;;3.44;62.12;100464.91;4960553;28;97139;-85
2021/12/02 21:55:43;;;;;;;4.17;3.33;;;;;;;3.51;61.98;100459.97;4943912;28;96954;-85
2021/12/02 21:58:09;;;;;;;10.73;3.87;;;;;;;3.53;61.92;100452.09;4943401;28;97510;-84
2021/12/02 22:00:46;;;;;;;5.83;3.80;;;;;;;3.54;61.95;100459.03;4946396;28;96843;-84
2021/12/02 22:03:14;;;;;;;4.37;3.83;;;;;;;3.57;62.08;100462.84;4944393;28;96851;-86
2021/12/02 22:05:39;;;;;;;6.27;3.53;;;;;;;3.57;61.79;100463.59;4943637;28;97348;-86
2021/12/02 22:08:04;;;;;;;4.10;3.70;;;;;;;3.58;61.88;100458.91;4963430;28;99232;-84
2021/12/02 22:10:31;;;;;;;6.10;3.70;;;;;;;3.56;61.84;100467.50;4944022;28;99055;-84
2021/12/02 22:12:56;;;;;;;5.87;4.13;;;;;;;3.55;61.88;100459.81;4944470;28;97123;-85
2021/12/02 22:15:22;;;;;;;6.43;4.50;;;;;;;3.55;61.96;100462.53;4947413;28;97356;-86
2021/12/02 22:17:48;;;;;;;5.13;4.20;;;;;;;3.57;61.95;100462.84;4944000;28;97016;-85
2021/12/02 22:20:14;;;;;;;6.53;4.37;;;;;;;3.54;61.91;100477.31;4946086;28;98444;-85
2021/12/02 22:22:40;;;;;;;7.33;4.47;;;;;;;3.55;62.18;100462.53;4944140;28;97238;-84
2021/12/02 22:25:07;;;;;;;5.93;4.13;;;;;;;3.56;61.82;100455.91;4941166;28;97056;-85
2021/12/02 22:27:32;;;;;;;6.37;4.00;;;;;;;3.56;62.06;100467.50;4946071;28;98663;-85
2021/12/02 22:29:58;;;;;;;4.40;3.60;;;;;;;3.53;62.09;100467.66;4969610;28;98421;-85
2021/12/02 22:32:24;;;;;;;5.90;4.37;;;;;;;3.48;61.80;100479.09;4945226;28;96929;-85
2021/12/02 22:34:49;;;;;;;4.97;3.63;;;;;;;3.46;61.87;100476.09;4944690;28;97074;-85
2021/12/02 22:37:28;;;;;;;5.23;4.00;;;;;;;3.43;61.87;100515.06;4945150;28;99812;-84
2021/12/02 22:39:55;;;;;;;4.70;3.40;;;;;;;3.40;62.03;100486.81;4943098;28;98397;-85
2021/12/02 22:42:22;;;;;;;4.27;3.60;;;;;;;3.37;61.99;100504.00;4964288;28;97015;-85
2021/12/02 22:44:48;;;;;;;6.13;3.77;;;;;;;3.34;62.08;100509.56;4944593;28;97018;-85
2021/12/02 22:47:13;;;;;;;6.87;3.60;;;;;;;3.32;62.02;100501.84;4947369;28;99289;-86
2021/12/02 22:49:39;;;;;;;6.17;3.90;;;;;;;3.29;62.17;100502.75;4944025;28;98425;-85
2021/12/02 22:52:06;;;;;;;4.13;3.47;;;;;;;3.26;62.04;100509.06;4965277;28;97134;-85
2021/12/02 22:54:32;;;;;;;5.63;3.53;;;;;;;3.23;62.38;100529.00;4960355;28;96841;-86
2021/12/02 22:56:59;;;;;;;4.50;4.10;;;;;;;3.22;62.24;100500.28;4944494;28;98922;-85
2021/12/02 22:59:25;;;;;;;4.27;3.60;;;;;;;3.20;62.45;100504.66;4945364;28;98537;-85
2021/12/02 23:01:50;;;;;;;7.87;4.20;;;;;;;3.18;62.27;100494.25;4942507;28;97102;-85
2021/12/02 23:04:16;;;;;;;4.77;3.30;;;;;;;3.16;62.26;100548.28;4945663;28;97000;-85
2021/12/02 23:06:41;;;;;;;5.70;3.90;;;;;;;3.19;62.32;100506.63;4943053;28;99515;-85
2021/12/02 23:09:07;;;;;;;6.00;3.70;;;;;;;3.22;62.45;100521.28;4947624;28;97388;-85
2021/12/02 23:11:33;;;;;;;5.10;3.40;;;;;;;3.21;62.22;100547.69;4942998;28;96997;-85
2021/12/02 23:14:01;;;;;;;4.33;3.50;;;;;;;3.21;62.02;100541.53;4946542;28;98467;-85
2021/12/02 23:16:27;;;;;;;6.60;3.63;;;;;;;3.23;62.11;100528.25;4935383;28;98628;-85
2021/12/02 23:18:53;;;;;;;6.80;3.47;;;;;;;3.21;62.09;100508.91;4942877;28;98564;-86
2021/12/02 23:21:18;;;;;;;5.70;4.10;;;;;;;3.20;62.33;100512.81;4940873;28;97190;-85
2021/12/02 23:23:46;;;;;;;7.57;3.53;;;;;;;3.21;62.29;100508.91;4947536;28;97089;-84